Time;durP1;ratioP1;P1;durP2;ratioP2;P2;SDS_P1;SDS_P2;PMS_P1;PMS_P2;Temp;Humidity;BMP_temperature;BMP_pressure;BME280_temperature;BME280_humidity;BME280_pressure;Samples;Min_cycle;Max_cycle;Signal;HPM_P1;HPM_P2
2022/05/22 00:00:12;;;;;;;786.70;737.27;;;10.50;99.90;;;;;;5065772;28;20508;-83
2022/05/22 00:02:39;;;;;;;778.13;729.90;;;10.50;99.90;;;;;;5066229;28;20475;-82
2022/05/22 00:05:07;;;;;;;767.33;720.63;;;10.60;99.90;;;;;;5065141;28;20455;-82
2022/05/22 00:07:36;;;;;;;745.07;700.93;;;10.60;99.90;;;;;;5065813;28;20475;-81
2022/05/22 00:10:03;;;;;;;700.77;662.07;;;10.70;99.90;;;;;;5065179;28;20458;-81
2022/05/22 00:12:30;;;;;;;702.33;663.90;;;10.60;99.90;;;;;;5065568;28;20467;-81
2022/05/22 00:14:57;;;;;;;700.23;661.63;;;10.70;99.90;;;;;;5064387;28;20459;-81
2022/05/22 00:17:24;;;;;;;669.43;632.93;;;10.60;99.90;;;;;;5065798;28;20447;-83
2022/05/22 00:19:50;;;;;;;708.97;669.37;;;10.70;99.90;;;;;;5064335;28;20452;-81
2022/05/22 00:22:17;;;;;;;663.33;628.93;;;10.80;99.90;;;;;;5065106;28;20467;-82
2022/05/22 00:24:46;;;;;;;765.07;721.30;;;10.90;99.90;;;;;;5065995;28;20447;-82
2022/05/22 00:27:12;;;;;;;744.90;702.33;;;10.70;99.90;;;;;;5065607;28;20478;-81
2022/05/22 00:29:40;;;;;;;770.30;726.13;;;10.70;99.90;;;;;;5064895;28;20458;-81
2022/05/22 00:32:08;;;;;;;724.43;684.43;;;10.60;99.90;;;;;;5065980;28;20546;-82
2022/05/22 00:34:35;;;;;;;803.13;755.43;;;10.60;99.90;;;;;;5065546;28;20452;-81
2022/05/22 00:37:02;;;;;;;836.53;785.10;;;10.50;99.90;;;;;;5065992;28;20450;-81
2022/05/22 00:39:29;;;;;;;865.63;810.20;;;10.50;99.90;;;;;;5065494;28;20483;-81
2022/05/22 00:41:58;;;;;;;875.60;818.70;;;10.50;99.90;;;;;;5065994;28;20566;-81
2022/05/22 00:44:25;;;;;;;864.93;810.23;;;10.50;99.90;;;;;;5065844;28;20452;-83
2022/05/22 00:46:52;;;;;;;826.73;776.50;;;10.60;99.90;;;;;;5066102;28;20479;-81
2022/05/22 00:49:23;;;;;;;823.33;772.30;;;10.40;99.90;;;;;;5063853;28;20452;-83
2022/05/22 00:51:56;;;;;;;852.57;800.13;;;10.40;99.90;;;;;;5066075;28;21007;-81
2022/05/22 00:54:27;;;;;;;906.10;848.90;;;10.40;99.90;;;;;;5065101;28;20452;-82
2022/05/22 00:56:59;;;;;;;906.30;846.50;;;10.30;99.90;;;;;;5065176;28;20448;-82
2022/05/22 00:59:28;;;;;;;918.50;854.73;;;10.20;99.90;;;;;;5064206;28;20455;-82
2022/05/22 01:02:01;;;;;;;924.13;858.60;;;10.10;99.90;;;;;;5065280;28;20467;-82
2022/05/22 01:04:31;;;;;;;933.37;865.17;;;10.20;99.90;;;;;;5065163;28;20447;-82
2022/05/22 01:06:58;;;;;;;942.80;871.20;;;10.20;99.90;;;;;;5065259;28;20471;-82
2022/05/22 01:09:25;;;;;;;940.93;868.27;;;10.00;99.90;;;;;;5064358;28;20443;-81
2022/05/22 01:11:56;;;;;;;962.07;886.57;;;10.00;99.90;;;;;;5065232;28;20471;-81
2022/05/22 01:14:24;;;;;;;970.57;893.77;;;10.10;99.90;;;;;;5064445;28;20448;-81
2022/05/22 01:16:51;;;;;;;957.50;881.33;;;10.00;99.90;;;;;;5064802;28;20458;-81
2022/05/22 01:19:23;;;;;;;957.90;881.20;;;9.90;99.90;;;;;;5064508;28;20501;-81
2022/05/22 01:21:53;;;;;;;961.37;885.67;;;9.80;99.90;;;;;;5064814;28;20483;-81
2022/05/22 01:24:20;;;;;;;970.23;895.03;;;9.80;99.90;;;;;;5064059;28;20454;-81
2022/05/22 01:26:49;;;;;;;975.00;899.30;;;9.70;99.90;;;;;;5064350;28;20473;-81
2022/05/22 01:29:17;;;;;;;975.10;897.10;;;9.60;99.90;;;;;;5063755;28;20443;-82
2022/05/22 01:31:44;;;;;;;980.20;901.17;;;9.50;99.90;;;;;;5063761;28;20464;-81
2022/05/22 01:34:11;;;;;;;974.97;896.10;;;9.50;99.90;;;;;;5063877;28;20449;-81
2022/05/22 01:36:38;;;;;;;981.77;902.67;;;9.50;99.90;;;;;;5065070;28;20558;-81
2022/05/22 01:39:07;;;;;;;991.60;912.10;;;9.40;99.90;;;;;;5063356;28;20448;-81
2022/05/22 01:41:34;;;;;;;980.40;901.70;;;9.50;99.90;;;;;;5064515;28;21054;-81
2022/05/22 01:44:01;;;;;;;978.90;901.00;;;9.30;99.90;;;;;;5064166;28;20985;-81
2022/05/22 01:46:28;;;;;;;971.17;892.30;;;9.20;99.90;;;;;;5064298;28;20456;-81
2022/05/22 01:48:55;;;;;;;957.17;880.50;;;9.20;99.90;;;;;;5063603;28;20456;-82
2022/05/22 01:51:22;;;;;;;951.50;875.43;;;9.20;99.90;;;;;;5064651;28;20463;-82
2022/05/22 01:53:49;;;;;;;958.73;881.17;;;9.20;99.90;;;;;;5077418;22;20487;-79
2022/05/22 01:56:17;;;;;;;969.83;889.07;;;9.20;99.90;;;;;;5052650;28;20835;-79
2022/05/22 01:58:43;;;;;;;989.00;905.00;;;9.10;99.90;;;;;;5051533;28;20474;-78
2022/05/22 02:01:11;;;;;;;986.83;903.87;;;9.20;99.90;;;;;;5052504;28;20455;-79
2022/05/22 02:03:38;;;;;;;976.97;894.33;;;9.10;99.90;;;;;;5051934;28;20511;-79
2022/05/22 02:06:05;;;;;;;983.90;900.17;;;9.00;99.90;;;;;;5052487;28;20454;-79
2022/05/22 02:08:31;;;;;;;989.53;903.97;;;9.00;99.90;;;;;;5051323;28;20978;-78
2022/05/22 02:11:00;;;;;;;988.80;904.33;;;9.00;99.90;;;;;;5052247;28;20448;-78
2022/05/22 02:13:31;;;;;;;997.27;911.20;;;9.00;99.90;;;;;;5052178;28;20293;-79
2022/05/22 02:15:57;;;;;;;1004.07;916.80;;;9.10;99.90;;;;;;5055960;28;20451;-79
2022/05/22 02:18:24;;;;;;;998.33;911.50;;;9.10;99.90;;;;;;5055058;28;20479;-79
2022/05/22 02:20:51;;;;;;;995.67;909.63;;;9.20;99.90;;;;;;5056043;28;20455;-79
2022/05/22 02:23:19;;;;;;;999.77;912.33;;;9.10;99.90;;;;;;5055699;28;20554;-79
2022/05/22 02:25:48;;;;;;;994.70;907.50;;;9.10;99.90;;;;;;5056137;28;20490;-78
2022/05/22 02:28:17;;;;;;;997.40;910.17;;;8.90;99.90;;;;;;5055284;28;20443;-78
2022/05/22 02:30:47;;;;;;;996.90;910.00;;;8.90;99.90;;;;;;5055936;28;20454;-78
2022/05/22 02:33:14;;;;;;;990.83;904.47;;;8.80;99.90;;;;;;5059710;28;20546;-80
2022/05/22 02:35:41;;;;;;;990.80;905.17;;;8.80;99.90;;;;;;5060780;28;20451;-80
2022/05/22 02:38:10;;;;;;;980.70;895.10;;;8.80;99.90;;;;;;5060281;28;20481;-79
2022/05/22 02:40:38;;;;;;;998.93;911.10;;;8.70;99.90;;;;;;5060833;28;20482;-79
2022/05/22 02:43:06;;;;;;;996.67;910.77;;;8.70;99.90;;;;;;5061133;28;20490;-80
2022/05/22 02:45:35;;;;;;;976.60;893.03;;;8.70;99.90;;;;;;5058260;28;20483;-79
2022/05/22 02:48:04;;;;;;;977.73;893.40;;;8.50;99.90;;;;;;5055516;28;20451;-78
2022/05/22 02:50:32;;;;;;;976.40;893.00;;;8.60;99.90;;;;;;5054720;28;20970;-79
2022/05/22 02:52:59;;;;;;;971.37;887.10;;;8.70;99.90;;;;;;5054727;28;20482;-78
2022/05/22 02:55:26;;;;;;;981.90;894.90;;;8.80;99.90;;;;;;5055358;28;20462;-79
2022/05/22 02:57:52;;;;;;;986.00;896.00;;;8.80;99.90;;;;;;5055702;28;20479;-78
2022/05/22 03:00:22;;;;;;;995.73;904.17;;;8.90;99.90;;;;;;5053847;28;20474;-79
2022/05/22 03:02:49;;;;;;;1003.67;910.10;;;9.10;99.90;;;;;;5050011;28;21061;-79
2022/05/22 03:05:17;;;;;;;997.53;904.63;;;9.10;99.90;;;;;;5054243;28;20827;-79
2022/05/22 03:07:44;;;;;;;990.90;899.10;;;9.10;99.90;;;;;;5055834;28;20447;-79
2022/05/22 03:10:13;;;;;;;986.60;895.37;;;9.20;99.90;;;;;;5054016;28;20482;-78
2022/05/22 03:12:40;;;;;;;979.43;889.33;;;9.30;99.90;;;;;;5034412;28;20468;-79
2022/05/22 03:15:09;;;;;;;976.87;887.63;;;9.40;99.90;;;;;;5035700;28;20459;-79
2022/05/22 03:17:36;;;;;;;973.53;885.53;;;9.30;99.90;;;;;;5053259;28;20475;-79
2022/05/22 03:20:04;;;;;;;968.60;879.40;;;9.20;99.90;;;;;;5052851;28;20511;-83
2022/05/22 03:22:32;;;;;;;973.37;885.50;;;9.20;99.90;;;;;;5055564;28;20478;-82
2022/05/22 03:24:59;;;;;;;974.67;886.90;;;9.10;99.90;;;;;;5055696;28;20509;-80
2022/05/22 03:27:26;;;;;;;969.13;882.77;;;9.00;99.90;;;;;;5056046;28;20452;-80
2022/05/22 03:29:52;;;;;;;953.50;866.70;;;9.00;99.90;;;;;;5056121;28;20470;-80
2022/05/22 03:32:19;;;;;;;952.60;866.07;;;9.00;99.90;;;;;;5055618;28;20479;-81
2022/05/22 03:34:46;;;;;;;950.83;864.33;;;8.90;99.90;;;;;;5056547;28;20447;-83
2022/05/22 03:37:14;;;;;;;933.47;848.13;;;9.00;99.90;;;;;;5055671;28;20977;-80
2022/05/22 03:39:42;;;;;;;940.60;855.50;;;8.80;99.90;;;;;;5054048;28;20457;-81
2022/05/22 03:42:10;;;;;;;949.67;865.10;;;8.80;99.90;;;;;;5053239;28;20475;-81
2022/05/22 03:44:37;;;;;;;943.20;857.73;;;8.70;99.90;;;;;;5054526;28;20821;-81
2022/05/22 03:47:04;;;;;;;950.87;864.53;;;8.70;99.90;;;;;;5054330;28;20451;-81
2022/05/22 03:49:31;;;;;;;947.33;860.77;;;8.70;99.90;;;;;;5052071;28;20812;-81
2022/05/22 03:51:58;;;;;;;939.87;854.53;;;8.70;99.90;;;;;;5056183;28;20451;-82
2022/05/22 03:54:25;;;;;;;923.17;839.30;;;8.70;99.90;;;;;;5059047;28;20448;-81
2022/05/22 03:56:53;;;;;;;918.50;834.00;;;8.70;99.90;;;;;;5051755;28;20455;-82
2022/05/22 03:59:20;;;;;;;923.03;839.50;;;8.90;99.90;;;;;;5053556;28;20483;-81
2022/05/22 04:01:47;;;;;;;920.57;836.90;;;8.80;99.90;;;;;;5053958;28;20451;-81
2022/05/22 04:04:14;;;;;;;924.63;842.17;;;8.80;99.90;;;;;;5051466;28;20448;-81
2022/05/22 04:06:40;;;;;;;922.40;839.50;;;8.90;99.90;;;;;;5054165;28;20451;-81
2022/05/22 04:09:08;;;;;;;916.67;833.60;;;8.90;99.90;;;;;;5053217;28;20455;-81
2022/05/22 04:11:35;;;;;;;915.50;832.33;;;9.10;99.90;;;;;;5054198;28;20463;-81
2022/05/22 04:14:03;;;;;;;924.80;840.33;;;9.20;99.90;;;;;;5054918;28;20478;-81
2022/05/22 04:16:30;;;;;;;905.90;823.50;;;9.20;99.90;;;;;;5057414;28;20448;-82
2022/05/22 04:18:57;;;;;;;917.03;834.57;;;9.20;99.90;;;;;;5043058;28;20535;-82
2022/05/22 04:21:23;;;;;;;912.50;831.07;;;9.40;99.90;;;;;;5056872;28;20451;-82
2022/05/22 04:26:34;;;;;;;912.70;830.53;;;9.40;99.90;;;;;;5058529;28;20442;-80
2022/05/22 04:29:03;;;;;;;921.47;840.50;;;9.70;99.90;;;;;;5056812;28;20448;-79
2022/05/22 04:31:30;;;;;;;914.50;834.30;;;9.70;99.90;;;;;;5051936;28;20455;-79
2022/05/22 04:33:57;;;;;;;934.60;854.23;;;9.80;99.90;;;;;;5052664;28;20490;-80
2022/05/22 04:36:23;;;;;;;916.53;838.47;;;9.80;99.90;;;;;;5052245;28;20468;-79
2022/05/22 04:38:50;;;;;;;912.93;838.20;;;9.90;99.90;;;;;;5050517;28;20486;-80
2022/05/22 04:41:18;;;;;;;920.47;846.37;;;9.80;99.90;;;;;;5056347;28;20451;-79
2022/05/22 04:43:45;;;;;;;928.07;853.60;;;9.90;99.90;;;;;;5056511;28;20482;-80
2022/05/22 04:46:13;;;;;;;916.00;840.00;;;10.00;99.90;;;;;;5056140;28;20458;-79
2022/05/22 04:48:43;;;;;;;906.77;831.87;;;10.00;99.90;;;;;;5054904;28;20451;-80
2022/05/22 04:51:09;;;;;;;906.33;831.53;;;10.30;99.90;;;;;;5057404;28;20457;-79
2022/05/22 04:53:36;;;;;;;911.00;836.07;;;10.40;99.90;;;;;;5055612;28;20482;-80
2022/05/22 04:56:05;;;;;;;897.67;823.67;;;10.40;99.90;;;;;;5055494;28;20970;-79
2022/05/22 04:58:32;;;;;;;893.07;820.47;;;10.50;99.90;;;;;;5054159;28;20917;-80
2022/05/22 05:00:58;;;;;;;899.90;827.67;;;10.70;99.90;;;;;;5057702;28;20821;-79
2022/05/22 05:03:26;;;;;;;897.50;825.67;;;10.80;99.90;;;;;;5054289;28;20475;-80
2022/05/22 05:05:57;;;;;;;906.23;836.07;;;11.00;99.90;;;;;;5055444;28;20831;-80
2022/05/22 05:08:24;;;;;;;890.47;822.97;;;11.10;99.90;;;;;;5056829;28;20470;-80
2022/05/22 05:10:52;;;;;;;891.23;824.23;;;11.20;99.90;;;;;;5056922;28;20463;-79
2022/05/22 05:13:19;;;;;;;888.30;823.50;;;11.40;99.90;;;;;;5056704;28;20992;-80
2022/05/22 05:15:57;;;;;;;892.53;828.97;;;11.50;99.90;;;;;;5053234;28;20455;-80
2022/05/22 05:18:26;;;;;;;871.60;809.30;;;11.80;99.90;;;;;;5054711;28;20471;-81
2022/05/22 05:20:53;;;;;;;855.53;797.70;;;12.00;99.90;;;;;;5059237;28;20448;-83
2022/05/22 05:23:20;;;;;;;840.57;782.17;;;12.30;99.90;;;;;;5054657;28;20463;-82
2022/05/22 05:25:47;;;;;;;714.50;675.60;;;12.60;99.90;;;;;;5052880;28;20460;-82
2022/05/22 05:28:13;;;;;;;389.70;374.63;;;13.10;99.90;;;;;;5054051;28;20451;-83
2022/05/22 05:30:40;;;;;;;67.03;63.87;;;13.60;99.90;;;;;;5053831;28;20447;-82
2022/05/22 05:33:07;;;;;;;18.60;17.03;;;14.00;99.90;;;;;;5044413;28;20480;-82
2022/05/22 05:35:41;;;;;;;9.47;8.47;;;14.50;99.90;;;;;;5046872;28;20827;-80
2022/05/22 05:38:08;;;;;;;10.80;7.17;;;14.90;99.90;;;;;;5031536;28;20482;-79
2022/05/22 05:40:35;;;;;;;11.53;8.10;;;15.20;99.90;;;;;;5034794;28;20460;-79
2022/05/22 05:43:03;;;;;;;15.00;8.63;;;15.40;99.90;;;;;;5035142;28;20505;-81
2022/05/22 05:45:33;;;;;;;14.37;7.87;;;15.40;99.90;;;;;;5033596;28;20466;-80
2022/05/22 05:48:00;;;;;;;13.47;7.70;;;15.40;99.90;;;;;;5035570;28;20450;-80
2022/05/22 05:50:27;;;;;;;12.23;7.43;;;15.30;99.90;;;;;;5051058;28;20473;-81
2022/05/22 05:52:56;;;;;;;19.23;8.20;;;15.40;99.90;;;;;;5051287;28;20478;-81
2022/05/22 05:55:24;;;;;;;15.80;8.20;;;15.30;99.90;;;;;;5053867;28;20465;-79
2022/05/22 05:57:52;;;;;;;12.30;8.00;;;15.30;99.90;;;;;;5050769;28;20452;-80
2022/05/22 06:00:21;;;;;;;11.43;8.00;;;15.60;99.90;;;;;;5049383;28;20455;-80
2022/05/22 06:02:47;;;;;;;9.23;6.80;;;16.00;99.90;;;;;;5051554;28;20893;-80
2022/05/22 06:05:15;;;;;;;15.70;7.67;;;16.50;99.90;;;;;;5050679;28;20514;-80
2022/05/22 06:07:42;;;;;;;10.73;6.90;;;16.70;95.90;;;;;;5052033;28;20460;-80
2022/05/22 06:10:12;;;;;;;10.07;6.40;;;17.10;93.50;;;;;;5054387;28;20454;-80
2022/05/22 06:12:39;;;;;;;14.57;7.77;;;17.40;91.50;;;;;;5051602;28;20472;-80
2022/05/22 06:15:07;;;;;;;10.20;7.07;;;17.70;84.00;;;;;;5050119;28;20459;-80
2022/05/22 06:17:36;;;;;;;10.63;6.60;;;18.20;82.30;;;;;;5053036;28;20959;-80
2022/05/22 06:20:06;;;;;;;8.33;6.23;;;18.20;73.10;;;;;;5051636;28;21006;-80
2022/05/22 06:22:34;;;;;;;11.23;6.00;;;18.50;72.50;;;;;;5054261;28;20476;-81
2022/05/22 06:25:01;;;;;;;10.83;6.83;;;18.90;71.10;;;;;;5054241;28;20466;-80
2022/05/22 06:27:29;;;;;;;13.00;6.80;;;19.30;69.80;;;;;;5053620;28;20457;-80
2022/05/22 06:29:56;;;;;;;9.73;6.20;;;19.60;61.40;;;;;;5051162;28;20446;-81
2022/05/22 06:32:24;;;;;;;12.80;8.10;;;19.60;57.80;;;;;;5053490;28;20501;-80
2022/05/22 06:34:51;;;;;;;14.00;6.60;;;19.50;58.80;;;;;;5051405;28;20503;-81
2022/05/22 06:37:21;;;;;;;9.90;6.10;;;19.70;55.50;;;;;;5052270;28;20833;-82
2022/05/22 06:39:50;;;;;;;10.80;7.77;;;20.00;57.80;;;;;;5051467;28;20479;-80
2022/05/22 06:42:23;;;;;;;10.63;6.27;;;20.40;59.20;;;;;;5053505;28;20558;-81
2022/05/22 06:44:57;;;;;;;12.63;6.00;;;20.40;50.80;;;;;;5054200;28;20456;-81
2022/05/22 06:47:25;;;;;;;8.33;5.30;;;20.20;51.30;;;;;;5054823;28;20453;-79
2022/05/22 06:49:52;;;;;;;10.33;6.33;;;19.60;52.20;;;;;;5051044;28;20452;-80
2022/05/22 06:52:19;;;;;;;14.53;9.07;;;19.80;53.00;;;;;;5052167;28;20479;-80
2022/05/22 06:54:46;;;;;;;11.60;7.10;;;19.40;52.70;;;;;;5052975;28;20451;-80
2022/05/22 06:57:16;;;;;;;12.20;6.80;;;19.50;53.70;;;;;;5050726;28;21001;-79
2022/05/22 06:59:43;;;;;;;10.37;7.20;;;19.20;53.50;;;;;;5049321;28;20475;-79
2022/05/22 07:02:11;;;;;;;13.63;7.50;;;19.20;54.70;;;;;;5052877;28;20837;-79
2022/05/22 07:04:38;;;;;;;10.93;6.80;;;19.40;52.70;;;;;;5052286;28;20443;-80
2022/05/22 07:07:05;;;;;;;12.80;6.17;;;19.70;50.80;;;;;;5053992;28;20451;-80
2022/05/22 07:09:32;;;;;;;9.70;6.03;;;19.90;47.90;;;;;;5053028;28;20443;-80
2022/05/22 07:11:59;;;;;;;9.00;5.20;;;19.80;46.80;;;;;;5053903;28;20459;-79
2022/05/22 07:14:27;;;;;;;9.80;5.90;;;20.10;47.80;;;;;;5055210;28;20459;-80
2022/05/22 07:16:55;;;;;;;9.87;4.47;;;20.40;45.70;;;;;;5055055;28;20452;-80
2022/05/22 07:19:23;;;;;;;8.00;4.63;;;20.60;44.90;;;;;;5053492;28;20477;-80
2022/05/22 07:21:50;;;;;;;12.37;5.83;;;20.20;38.90;;;;;;5053217;28;20459;-79
2022/05/22 07:24:17;;;;;;;13.10;5.50;;;20.50;41.40;;;;;;5054075;28;20452;-82
2022/05/22 07:26:43;;;;;;;8.33;4.60;;;20.60;40.80;;;;;;5057065;28;20460;-79
2022/05/22 07:29:10;;;;;;;11.37;6.27;;;20.80;41.10;;;;;;5056141;28;20452;-80
2022/05/22 07:31:40;;;;;;;9.10;6.00;;;20.60;41.10;;;;;;5056527;28;20453;-83
2022/05/22 07:34:07;;;;;;;10.47;5.70;;;20.70;44.60;;;;;;5057937;28;20465;-82
2022/05/22 07:36:35;;;;;;;11.10;6.43;;;20.90;44.30;;;;;;5056701;28;20457;-81
2022/05/22 07:39:02;;;;;;;10.03;5.53;;;21.30;41.40;;;;;;5055526;28;20481;-80
2022/05/22 07:41:30;;;;;;;9.30;5.80;;;21.40;39.30;;;;;;5057030;28;20454;-81
2022/05/22 07:43:57;;;;;;;13.00;6.80;;;21.70;38.80;;;;;;5056827;28;20498;-82
2022/05/22 07:46:24;;;;;;;10.10;6.70;;;21.80;37.00;;;;;;5058115;28;20857;-86
2022/05/22 07:48:52;;;;;;;9.50;5.80;;;21.70;39.00;;;;;;5054888;28;20476;-82
2022/05/22 07:51:19;;;;;;;17.83;6.80;;;21.70;37.60;;;;;;5055345;28;20462;-83
2022/05/22 07:53:50;;;;;;;11.23;6.07;;;21.80;37.80;;;;;;5156731;22;20493;-78
2022/05/22 07:56:22;;;;;;;12.90;6.97;;;21.90;37.10;;;;;;5065880;28;20457;-80
2022/05/22 07:58:50;;;;;;;12.03;6.47;;;22.20;35.30;;;;;;5066984;28;20443;-81
2022/05/22 08:01:17;;;;;;;11.47;6.53;;;22.10;35.50;;;;;;5066653;28;20466;-79
2022/05/22 08:03:44;;;;;;;14.33;5.93;;;22.30;33.30;;;;;;5068931;28;20468;-79
2022/05/22 08:06:12;;;;;;;8.50;4.90;;;22.70;31.70;;;;;;5065690;28;20967;-81
2022/05/22 08:08:39;;;;;;;14.03;5.70;;;23.00;26.00;;;;;;5067099;28;20471;-79
2022/05/22 08:11:07;;;;;;;9.47;5.90;;;22.90;25.80;;;;;;5065494;28;20459;-79
2022/05/22 08:13:34;;;;;;;13.40;5.83;;;23.50;22.20;;;;;;5061858;28;20888;-79
2022/05/22 08:16:01;;;;;;;12.40;5.80;;;23.40;22.20;;;;;;5063035;28;20447;-79
2022/05/22 08:18:28;;;;;;;13.30;6.70;;;23.60;24.30;;;;;;5061974;28;20545;-79
2022/05/22 08:20:54;;;;;;;11.10;6.10;;;23.60;23.20;;;;;;5062955;28;20459;-79
2022/05/22 08:23:23;;;;;;;7.63;4.97;;;23.40;18.70;;;;;;5063871;28;20478;-82
2022/05/22 08:25:53;;;;;;;9.90;5.00;;;22.70;21.60;;;;;;5061232;28;20447;-79
2022/05/22 08:28:21;;;;;;;9.87;4.73;;;22.20;25.60;;;;;;5062624;28;20462;-80
2022/05/22 08:30:48;;;;;;;10.13;5.03;;;22.10;21.20;;;;;;5069654;28;20457;-80
2022/05/22 08:33:16;;;;;;;9.87;5.00;;;21.90;21.10;;;;;;5069663;28;21017;-80
2022/05/22 08:35:44;;;;;;;13.77;4.90;;;22.50;21.50;;;;;;5067215;28;20450;-79
2022/05/22 08:38:12;;;;;;;8.97;4.60;;;23.20;19.80;;;;;;5061629;28;20465;-79
2022/05/22 08:40:58;;;;;;;10.50;5.40;;;23.80;18.50;;;;;;5063028;28;20457;-79
2022/05/22 08:43:37;;;;;;;13.03;5.47;;;24.00;18.30;;;;;;5065614;28;20519;-79
2022/05/22 08:46:15;;;;;;;12.83;4.90;;;24.60;15.50;;;;;;5066509;28;20451;-80
2022/05/22 08:48:48;;;;;;;12.93;5.50;;;25.00;12.40;;;;;;5063280;28;20479;-81
2022/05/22 08:51:26;;;;;;;14.60;5.70;;;25.00;11.10;;;;;;5064985;28;20482;-81
2022/05/22 08:53:58;;;;;;;8.83;4.13;;;25.20;11.00;;;;;;5065649;28;20546;-82
2022/05/22 08:59:25;;;;;;;10.40;5.03;;;26.10;8.70;;;;;;5066095;28;20478;-82
2022/05/22 09:02:10;;;;;;;10.73;5.43;;;25.10;11.60;;;;;;5065717;28;20509;-82
2022/05/22 09:04:41;;;;;;;11.43;5.03;;;25.20;12.80;;;;;;5065092;28;20459;-81
2022/05/22 09:07:20;;;;;;;13.50;4.63;;;25.20;9.70;;;;;;5065955;28;20482;-82
2022/05/22 09:09:52;;;;;;;9.30;4.80;;;25.00;13.50;;;;;;5065582;28;20478;-82
2022/05/22 09:13:04;;;;;;;10.87;4.90;;;25.10;10.30;;;;;;5066137;28;20458;-83
2022/05/22 09:18:35;;;;;;;8.17;4.37;;;26.00;8.30;;;;;;5062667;28;20451;-82
2022/05/22 09:21:14;;;;;;;12.50;5.70;;;26.70;6.70;;;;;;5065028;28;20444;-82
2022/05/22 09:24:06;;;;;;;16.33;5.17;;;25.20;6.90;;;;;;5065092;28;20537;-82
2022/05/22 09:26:55;;;;;;;12.10;5.00;;;24.80;4.70;;;;;;5050686;28;20447;-84
2022/05/22 09:29:49;;;;;;;10.77;5.40;;;25.10;6.70;;;;;;5064337;28;20466;-82
2022/05/22 09:32:30;;;;;;;9.00;4.40;;;24.80;7.80;;;;;;5065379;28;20551;-81
2022/05/22 09:35:10;;;;;;;11.67;5.10;;;25.40;4.90;;;;;;5064982;28;21021;-82
2022/05/22 09:37:46;;;;;;;10.33;5.20;;;25.80;1.30;;;;;;5065445;28;20450;-82
2022/05/22 09:40:23;;;;;;;8.93;4.90;;;25.70;1.00;;;;;;5064857;28;20477;-82
2022/05/22 09:43:22;;;;;;;11.17;6.10;;;25.50;4.40;;;;;;5065223;28;20477;-81
2022/05/22 09:46:01;;;;;;;11.13;5.30;;;25.50;3.60;;;;;;5065542;28;20455;-82
2022/05/22 09:48:41;;;;;;;12.20;5.40;;;25.90;5.00;;;;;;5063985;28;20459;-81
2022/05/22 09:51:14;;;;;;;9.63;4.10;;;26.20;1.00;;;;;;5064853;28;20443;-82
2022/05/22 09:53:48;;;;;;;10.93;5.20;;;26.70;3.10;;;;;;5065722;28;20479;-82
2022/05/22 09:56:27;;;;;;;10.03;4.67;;;26.80;2.50;;;;;;5065609;28;20459;-83
2022/05/22 09:59:07;;;;;;;9.57;4.27;;;27.40;1.60;;;;;;5064871;28;20459;-82
2022/05/22 10:01:39;;;;;;;9.13;4.23;;;27.60;1.00;;;;;;5065640;28;20451;-81
2022/05/22 10:04:19;;;;;;;12.70;5.10;;;27.60;1.00;;;;;;5064829;28;20493;-81
2022/05/22 10:06:56;;;;;;;10.57;4.13;;;28.40;1.00;;;;;;5064129;28;20916;-82
2022/05/22 10:09:31;;;;;;;8.70;3.90;;;29.20;1.00;;;;;;5064711;28;20406;-82
2022/05/22 10:12:12;;;;;;;10.03;3.23;;;29.20;1.00;;;;;;5065156;28;20435;-82
2022/05/22 10:14:52;;;;;;;9.00;3.83;;;29.80;1.00;;;;;;5064719;28;20447;-82
2022/05/22 10:17:31;;;;;;;11.60;3.47;;;29.70;1.00;;;;;;5064920;28;20441;-82
2022/05/22 10:20:09;;;;;;;11.07;4.73;;;30.20;1.00;;;;;;5063359;28;20521;-82
2022/05/22 10:22:57;;;;;;;8.93;4.17;;;30.10;1.00;;;;;;5064037;28;20482;-82
2022/05/22 10:25:42;;;;;;;7.27;4.00;;;29.40;1.00;;;;;;5064325;28;20443;-82
2022/05/22 10:28:14;;;;;;;7.40;3.93;;;29.80;1.00;;;;;;5064188;28;20457;-83
2022/05/22 10:30:46;;;;;;;7.60;3.83;;;29.70;1.00;;;;;;5064347;28;20926;-82
2022/05/22 10:33:21;;;;;;;9.23;4.60;;;29.60;1.00;;;;;;5063951;28;20478;-81
2022/05/22 10:35:56;;;;;;;9.10;4.17;;;30.00;1.00;;;;;;5065447;28;20445;-82
2022/05/22 10:38:24;;;;;;;9.40;5.20;;;30.20;1.00;;;;;;5067182;28;20439;-81
2022/05/22 10:43:40;;;;;;;7.93;4.30;;;30.40;1.00;;;;;;5068252;28;20461;-82
2022/05/22 10:46:07;;;;;;;8.90;4.03;;;30.50;1.00;;;;;;5067618;28;20900;-82
2022/05/22 10:48:35;;;;;;;8.70;4.80;;;30.30;1.00;;;;;;5067048;28;20450;-83
2022/05/22 10:51:11;;;;;;;9.33;3.30;;;30.10;1.00;;;;;;5067997;28;20453;-84
2022/05/22 10:53:52;;;;;;;12.43;4.20;;;30.60;1.00;;;;;;5068006;28;20474;-83
2022/05/22 10:56:22;;;;;;;7.67;4.20;;;30.90;1.00;;;;;;5067527;28;20454;-83
2022/05/22 10:58:54;;;;;;;8.80;3.63;;;31.10;1.00;;;;;;5066625;28;20458;-82
2022/05/22 11:01:23;;;;;;;8.57;4.57;;;30.70;1.00;;;;;;5067082;28;20485;-82
2022/05/22 11:04:02;;;;;;;7.33;3.97;;;30.60;1.00;;;;;;5067982;28;20983;-82
2022/05/22 11:06:30;;;;;;;11.67;4.63;;;31.80;1.00;;;;;;5066308;28;20451;-82
2022/05/22 11:08:58;;;;;;;7.90;4.00;;;31.20;1.00;;;;;;5066984;28;20447;-82
2022/05/22 11:11:27;;;;;;;8.00;3.47;;;31.10;1.00;;;;;;5068354;28;20451;-83
2022/05/22 11:14:04;;;;;;;8.17;3.90;;;31.00;1.00;;;;;;5066989;28;20475;-82
2022/05/22 11:16:31;;;;;;;8.10;4.10;;;31.20;1.00;;;;;;5065890;28;20450;-82
2022/05/22 11:19:08;;;;;;;8.10;3.40;;;30.10;1.00;;;;;;5066534;28;20454;-82
2022/05/22 11:21:41;;;;;;;6.50;3.60;;;29.80;1.00;;;;;;5066688;28;20458;-82
2022/05/22 11:24:26;;;;;;;8.43;3.77;;;29.50;1.00;;;;;;5066959;28;20475;-82
2022/05/22 11:27:14;;;;;;;9.80;4.13;;;30.40;1.00;;;;;;5067305;28;20463;-82
2022/05/22 11:30:02;;;;;;;8.03;3.70;;;30.40;1.00;;;;;;5066129;28;20931;-82
2022/05/22 11:32:45;;;;;;;10.27;4.40;;;30.60;1.00;;;;;;5066688;28;20471;-82
2022/05/22 11:35:32;;;;;;;7.43;3.90;;;30.70;1.00;;;;;;5066824;28;20554;-82
2022/05/22 11:38:13;;;;;;;9.37;4.57;;;29.90;1.00;;;;;;5068466;28;20940;-83
2022/05/22 11:40:48;;;;;;;12.30;4.23;;;29.90;1.00;;;;;;5067927;28;20463;-82
2022/05/22 11:43:33;;;;;;;7.97;4.00;;;29.10;1.00;;;;;;5068161;28;20475;-82
2022/05/22 11:46:04;;;;;;;8.77;3.07;;;29.60;1.00;;;;;;5066490;28;20507;-82
2022/05/22 11:49:00;;;;;;;8.47;3.83;;;31.50;1.00;;;;;;5065578;28;20440;-82
2022/05/22 11:51:56;;;;;;;6.40;3.27;;;31.90;1.00;;;;;;5067430;28;20431;-82
2022/05/22 11:54:46;;;;;;;10.07;3.97;;;32.10;1.00;;;;;;5065927;28;20487;-82
2022/05/22 11:57:26;;;;;;;8.80;3.50;;;32.30;1.00;;;;;;5066597;28;20435;-82
2022/05/22 12:00:17;;;;;;;7.10;2.70;;;32.90;1.00;;;;;;5066130;28;20433;-82
2022/05/22 12:03:07;;;;;;;8.47;4.10;;;33.30;1.00;;;;;;5066640;28;20450;-83
2022/05/22 12:05:46;;;;;;;7.40;3.83;;;33.40;1.00;;;;;;5065084;28;20454;-82
2022/05/22 12:08:48;;;;;;;10.70;4.30;;;33.20;1.00;;;;;;5064372;28;20431;-83
2022/05/22 12:11:26;;;;;;;8.37;3.53;;;32.90;1.00;;;;;;5065683;28;20546;-82
2022/05/22 12:14:00;;;;;;;10.77;3.70;;;33.10;1.00;;;;;;5066624;28;20520;-82
2022/05/22 12:16:32;;;;;;;9.43;4.20;;;33.10;1.00;;;;;;5065673;28;20431;-82
2022/05/22 12:19:06;;;;;;;7.90;3.43;;;32.90;1.00;;;;;;5065121;28;20432;-82
2022/05/22 12:21:53;;;;;;;11.40;3.80;;;32.60;1.00;;;;;;5066547;28;20473;-82
2022/05/22 12:24:28;;;;;;;10.47;3.77;;;32.70;1.00;;;;;;5066685;28;20485;-82
2022/05/22 12:26:58;;;;;;;7.93;3.60;;;32.70;1.00;;;;;;5066601;28;20439;-81
2022/05/22 12:29:31;;;;;;;7.67;3.93;;;32.20;1.00;;;;;;5065818;28;20451;-84
2022/05/22 12:32:03;;;;;;;10.80;3.80;;;31.80;1.00;;;;;;5065096;28;20479;-82
2022/05/22 12:34:37;;;;;;;11.10;3.33;;;31.40;1.00;;;;;;5066959;28;20566;-83
2022/05/22 12:37:07;;;;;;;9.03;3.87;;;32.60;1.00;;;;;;5066465;28;20807;-82
2022/05/22 12:39:43;;;;;;;7.50;3.93;;;31.60;1.00;;;;;;5066151;28;20447;-83
2022/05/22 12:42:17;;;;;;;9.60;3.93;;;31.30;1.00;;;;;;5066436;28;20424;-81
2022/05/22 12:44:44;;;;;;;8.23;4.30;;;30.30;1.00;;;;;;5066479;28;20478;-82
2022/05/22 12:47:15;;;;;;;9.30;4.60;;;29.30;1.00;;;;;;5066394;28;20450;-82
2022/05/22 12:49:53;;;;;;;9.93;3.73;;;29.70;1.00;;;;;;5065530;28;20466;-82
2022/05/22 12:52:31;;;;;;;9.23;4.00;;;30.40;1.00;;;;;;5065415;28;20426;-82
2022/05/22 12:55:00;;;;;;;9.33;4.40;;;31.00;1.00;;;;;;5065776;28;20509;-84
2022/05/22 12:57:28;;;;;;;9.33;3.77;;;31.60;1.00;;;;;;5066134;28;20443;-82
2022/05/22 12:59:57;;;;;;;10.60;3.60;;;31.90;1.00;;;;;;5065065;28;20447;-82